Piatt, Pennsylvania
Current Conditions -  °F | °C
As of 5:54 AM on Thursday 18 Dec 2014 (Local Time) from KIPT Reporting Station
Overcast Overcast  
Wind Chill: 25°   Ceiling: 3900
Heat Index: 34°   Visibility: 10mi
Dew Point: 20°   Wind: 13mph
Humidity: 56%   Direction: 290°WNW
Pressure: 30.04"   Gusts: 21mph
Location:  41.1288°N, 77.1989°W
Report Text: KIPT 181054Z AUTO 29011G18KT 10SM OVC039 01/M07 A3004 RMK AO2 SLP178 T00111067
Loading
Personal Weather Stations






























Interactive Weather Map New forecast layout! Learn more

10-Day Weather Forecast

Advertisements
Track Severe Weather on mobile